Time;durP1;ratioP1;P1;durP2;ratioP2;P2;SDS_P1;SDS_P2;PMS_P1;PMS_P2;Temp;Humidity;BMP_temperature;BMP_pressure;BME280_temperature;BME280_humidity;BME280_pressure;Samples;Min_cycle;Max_cycle;Signal;HPM_P1;HPM_P2
2022/06/24 00:00:03;;;;;;;0.90;0.90;;;21.40;99.90;;;;;;5034043;28;20204;-63
2022/06/24 00:02:30;;;;;;;1.20;1.10;;;21.30;99.90;;;;;;5033969;28;20205;-62
2022/06/24 00:04:58;;;;;;;1.27;0.90;;;21.40;99.90;;;;;;5033598;28;20212;-64
2022/06/24 00:07:25;;;;;;;0.80;0.80;;;21.40;99.90;;;;;;5033358;28;20259;-63
2022/06/24 00:09:52;;;;;;;0.88;0.88;;;21.40;99.90;;;;;;5033513;28;20196;-62
2022/06/24 00:12:26;;;;;;;0.93;0.93;;;21.30;99.90;;;;;;5034110;28;20292;-64
2022/06/24 00:15:00;;;;;;;1.45;0.98;;;21.20;99.90;;;;;;5033927;28;20675;-63
2022/06/24 00:17:29;;;;;;;0.98;0.85;;;21.10;99.90;;;;;;5025594;28;20355;-63
2022/06/24 00:19:58;;;;;;;1.43;1.10;;;21.10;99.90;;;;;;5029807;28;20209;-62
2022/06/24 00:22:26;;;;;;;1.02;1.02;;;21.20;99.90;;;;;;5025928;28;20283;-64
2022/06/24 00:25:08;;;;;;;1.20;1.02;;;21.10;99.90;;;;;;5041712;28;20307;-63
2022/06/24 00:27:37;;;;;;;0.98;0.98;;;21.20;99.90;;;;;;5026803;28;20235;-62
2022/06/24 00:30:12;;;;;;;0.90;0.90;;;21.20;99.90;;;;;;5033873;28;20292;-63
2022/06/24 00:32:39;;;;;;;1.13;1.02;;;21.10;99.90;;;;;;5034038;28;20263;-63
2022/06/24 00:35:09;;;;;;;1.25;1.00;;;21.10;99.90;;;;;;5033521;28;20726;-63
2022/06/24 00:37:37;;;;;;;1.20;1.10;;;21.00;99.90;;;;;;5032981;28;20235;-63
2022/06/24 00:40:24;;;;;;;1.20;1.00;;;20.90;99.90;;;;;;5038666;28;20315;-64
2022/06/24 00:42:53;;;;;;;1.63;1.08;;;20.90;99.90;;;;;;5033734;28;20292;-64
2022/06/24 00:45:28;;;;;;;1.05;1.05;;;20.90;99.90;;;;;;5035065;28;20291;-62
2022/06/24 00:47:57;;;;;;;1.73;1.17;;;20.80;99.90;;;;;;5043570;28;20243;-64
2022/06/24 00:50:25;;;;;;;1.05;1.00;;;20.90;99.90;;;;;;5033518;28;20241;-64
2022/06/24 00:52:54;;;;;;;0.90;0.90;;;20.80;99.90;;;;;;5033623;28;20287;-62
2022/06/24 00:55:24;;;;;;;1.33;1.20;;;20.70;99.90;;;;;;5033355;28;20197;-63
2022/06/24 00:57:52;;;;;;;1.17;1.10;;;20.70;99.90;;;;;;5030076;28;20721;-62
2022/06/24 01:00:23;;;;;;;1.27;1.15;;;20.80;99.90;;;;;;5033472;28;20201;-63
2022/06/24 01:02:50;;;;;;;1.17;1.07;;;20.80;99.90;;;;;;5033656;28;20196;-64
2022/06/24 01:05:18;;;;;;;1.37;1.27;;;20.80;99.90;;;;;;5033221;28;20292;-63
2022/06/24 01:07:45;;;;;;;1.38;1.27;;;20.70;99.90;;;;;;5033372;28;20571;-63
2022/06/24 01:10:13;;;;;;;1.55;1.25;;;20.80;99.90;;;;;;5033278;28;20292;-64
2022/06/24 01:12:40;;;;;;;1.13;1.00;;;20.70;99.90;;;;;;5035398;28;20247;-62
2022/06/24 01:15:09;;;;;;;1.20;1.13;;;20.60;99.90;;;;;;5034801;28;20211;-62
2022/06/24 01:17:37;;;;;;;1.10;1.10;;;20.50;99.90;;;;;;5032077;28;20671;-63
2022/06/24 01:20:04;;;;;;;1.30;1.20;;;20.40;99.90;;;;;;5029215;28;20205;-62
2022/06/24 01:22:33;;;;;;;1.10;1.00;;;20.30;99.90;;;;;;5037861;28;20287;-64
2022/06/24 01:24:59;;;;;;;1.13;1.10;;;20.30;99.90;;;;;;5032465;28;20239;-64
2022/06/24 01:27:26;;;;;;;1.67;1.30;;;20.30;99.90;;;;;;5032051;28;20307;-63
2022/06/24 01:29:54;;;;;;;1.30;1.20;;;20.30;99.90;;;;;;5032560;28;20316;-63
2022/06/24 01:32:21;;;;;;;1.17;1.10;;;20.30;99.90;;;;;;5032450;28;20205;-64
2022/06/24 01:34:48;;;;;;;0.95;0.95;;;20.20;99.90;;;;;;5032086;28;20215;-62
2022/06/24 01:37:15;;;;;;;1.20;1.10;;;20.20;99.90;;;;;;5032053;28;20311;-63
2022/06/24 01:39:44;;;;;;;2.38;1.20;;;20.00;99.90;;;;;;5032231;28;20616;-64
2022/06/24 01:42:10;;;;;;;1.37;1.20;;;20.00;99.90;;;;;;5038683;28;20693;-61
2022/06/24 01:44:38;;;;;;;1.10;1.10;;;19.90;99.90;;;;;;5032308;28;20255;-62
2022/06/24 01:47:05;;;;;;;1.40;1.30;;;19.80;99.90;;;;;;5044673;28;20679;-64
2022/06/24 01:49:31;;;;;;;1.20;1.20;;;19.80;99.90;;;;;;5035564;28;20255;-62
2022/06/24 01:51:59;;;;;;;1.42;1.35;;;19.80;99.90;;;;;;5032134;28;20299;-62
2022/06/24 01:54:26;;;;;;;1.15;1.08;;;19.70;99.90;;;;;;5031864;28;20212;-64
2022/06/24 01:56:54;;;;;;;0.90;0.90;;;19.80;99.90;;;;;;5025532;28;20599;-63
2022/06/24 01:59:22;;;;;;;1.10;1.00;;;19.80;99.90;;;;;;5038422;28;20637;-63
2022/06/24 02:01:49;;;;;;;1.40;1.30;;;19.70;99.90;;;;;;5036332;28;20279;-64
2022/06/24 02:04:16;;;;;;;1.13;1.03;;;19.70;99.90;;;;;;5033694;28;20200;-64
2022/06/24 02:06:43;;;;;;;1.20;1.10;;;19.80;99.90;;;;;;5031127;28;20664;-64
2022/06/24 02:09:10;;;;;;;1.75;1.02;;;19.80;99.90;;;;;;5031618;28;20266;-62
2022/06/24 02:14:24;;;;;;;1.30;1.20;;;19.80;99.90;;;;;;5031736;28;20259;-62
2022/06/24 02:16:52;;;;;;;1.20;1.20;;;19.80;99.90;;;;;;5031348;28;20316;-63
2022/06/24 02:19:19;;;;;;;1.97;1.00;;;19.80;99.90;;;;;;5032816;28;20283;-63
2022/06/24 02:21:46;;;;;;;1.30;1.10;;;19.70;99.90;;;;;;5032760;28;20203;-64
2022/06/24 02:24:15;;;;;;;1.57;1.20;;;19.70;99.90;;;;;;5032945;28;20204;-63
2022/06/24 02:26:42;;;;;;;2.13;1.10;;;19.80;99.90;;;;;;5031057;28;20244;-64
2022/06/24 02:29:09;;;;;;;1.30;1.20;;;19.70;99.90;;;;;;5032110;28;20228;-63
2022/06/24 02:31:38;;;;;;;1.15;1.15;;;19.70;99.90;;;;;;5034694;28;20204;-63
2022/06/24 02:34:05;;;;;;;0.95;0.95;;;19.60;99.90;;;;;;5033844;28;20690;-64
2022/06/24 02:36:32;;;;;;;1.15;1.05;;;19.90;99.90;;;;;;5026011;28;20212;-64
2022/06/24 02:38:58;;;;;;;1.05;1.05;;;20.00;99.90;;;;;;5030568;28;20288;-62
2022/06/24 02:41:26;;;;;;;1.30;1.20;;;20.10;99.90;;;;;;5036820;28;20678;-62
2022/06/24 02:43:53;;;;;;;1.30;1.20;;;20.00;99.90;;;;;;5034179;28;20236;-62
2022/06/24 02:46:20;;;;;;;1.27;1.17;;;20.10;99.90;;;;;;5032189;28;20232;-64
2022/06/24 02:48:48;;;;;;;1.42;1.30;;;20.00;99.90;;;;;;5035080;28;20314;-64
2022/06/24 02:51:16;;;;;;;2.90;1.20;;;20.00;99.90;;;;;;5035293;28;20674;-64
2022/06/24 02:53:43;;;;;;;1.45;1.05;;;20.10;99.90;;;;;;5026814;28;20205;-63
2022/06/24 02:56:11;;;;;;;0.93;0.93;;;20.10;99.90;;;;;;5030436;28;20232;-62
2022/06/24 02:58:39;;;;;;;1.05;1.05;;;20.10;99.90;;;;;;5032029;28;20225;-64
2022/06/24 03:01:07;;;;;;;1.10;1.10;;;20.20;99.90;;;;;;5040924;28;20200;-63
2022/06/24 03:03:34;;;;;;;1.00;1.00;;;20.20;99.90;;;;;;5032018;28;20284;-62
2022/06/24 03:06:02;;;;;;;1.30;1.20;;;20.20;99.90;;;;;;5033787;28;20291;-62
2022/06/24 03:08:30;;;;;;;1.23;1.13;;;20.10;99.90;;;;;;5042299;28;20295;-63
2022/06/24 03:10:57;;;;;;;1.45;1.35;;;20.00;99.90;;;;;;5046386;28;20634;-64
2022/06/24 03:13:25;;;;;;;1.13;1.03;;;19.90;99.90;;;;;;5026044;28;20286;-63
2022/06/24 03:15:51;;;;;;;1.00;1.00;;;19.80;99.90;;;;;;5033157;28;20201;-63
2022/06/24 03:18:19;;;;;;;1.20;1.10;;;19.80;99.90;;;;;;5031041;28;20248;-62
2022/06/24 03:20:46;;;;;;;1.50;1.40;;;19.80;99.90;;;;;;5030692;28;20217;-65
2022/06/24 03:23:15;;;;;;;1.10;1.10;;;19.70;99.90;;;;;;5030089;28;20209;-64
2022/06/24 03:25:42;;;;;;;1.23;1.10;;;19.70;99.90;;;;;;5033434;28;20675;-62
2022/06/24 03:28:09;;;;;;;1.10;1.10;;;19.60;99.90;;;;;;5032845;28;20316;-62
2022/06/24 03:30:35;;;;;;;1.33;1.10;;;19.70;99.90;;;;;;5035104;28;20212;-62
2022/06/24 03:33:03;;;;;;;1.17;1.10;;;19.70;99.90;;;;;;5040684;28;20295;-64
2022/06/24 03:35:30;;;;;;;1.00;0.98;;;19.80;99.90;;;;;;5034569;28;20296;-63
2022/06/24 03:37:57;;;;;;;1.00;1.00;;;19.90;99.90;;;;;;5034261;28;20282;-63
2022/06/24 03:40:25;;;;;;;1.23;1.13;;;19.90;99.90;;;;;;5035210;28;20569;-65
2022/06/24 03:42:53;;;;;;;1.30;1.20;;;20.10;99.90;;;;;;5035372;28;20659;-62
2022/06/24 03:45:20;;;;;;;1.48;1.20;;;20.10;99.90;;;;;;5027188;28;20240;-64
2022/06/24 03:47:47;;;;;;;1.10;1.00;;;19.90;99.90;;;;;;5029837;28;20287;-61
2022/06/24 03:50:15;;;;;;;1.10;1.00;;;19.90;99.90;;;;;;5035122;28;20263;-63
2022/06/24 03:52:41;;;;;;;1.38;1.20;;;19.90;99.90;;;;;;5035237;28;20259;-62
2022/06/24 03:55:09;;;;;;;1.88;1.10;;;19.90;99.90;;;;;;5035309;28;20299;-64
2022/06/24 03:57:37;;;;;;;1.23;1.13;;;19.90;99.90;;;;;;5035086;28;20225;-62
2022/06/24 04:00:07;;;;;;;1.33;1.23;;;19.90;99.90;;;;;;5034915;28;20200;-63
2022/06/24 04:02:34;;;;;;;1.10;1.10;;;20.10;99.90;;;;;;5034748;28;20204;-63
2022/06/24 04:05:00;;;;;;;1.75;1.10;;;20.40;99.90;;;;;;5034265;28;20241;-62
2022/06/24 04:07:27;;;;;;;1.10;1.00;;;20.50;99.90;;;;;;5034331;28;20236;-63
2022/06/24 04:09:54;;;;;;;1.50;1.20;;;20.60;99.90;;;;;;5045913;28;20251;-63
2022/06/24 04:12:21;;;;;;;1.15;1.15;;;20.60;99.90;;;;;;5045842;28;20236;-63
2022/06/24 04:17:34;;;;;;;1.77;1.20;;;20.90;99.90;;;;;;5028309;28;20234;-64
2022/06/24 04:20:00;;;;;;;1.20;1.10;;;21.00;99.90;;;;;;5034621;28;20293;-64
2022/06/24 04:22:27;;;;;;;1.42;1.33;;;21.10;99.90;;;;;;5043801;28;20347;-62
2022/06/24 04:24:54;;;;;;;2.80;1.30;;;21.10;99.90;;;;;;5035922;28;20287;-63
2022/06/24 04:27:21;;;;;;;1.43;1.33;;;21.20;99.90;;;;;;5034304;28;20224;-64
2022/06/24 04:29:49;;;;;;;1.52;1.20;;;21.10;99.90;;;;;;5035571;28;20220;-62
2022/06/24 04:32:16;;;;;;;1.13;1.10;;;21.10;99.90;;;;;;5035268;28;20207;-62
2022/06/24 04:34:43;;;;;;;1.60;1.20;;;21.10;99.90;;;;;;5034998;28;20204;-63
2022/06/24 04:37:10;;;;;;;1.23;1.13;;;21.10;99.90;;;;;;5034259;28;20259;-62
2022/06/24 04:39:36;;;;;;;1.10;1.00;;;21.10;99.90;;;;;;5029721;28;20236;-64
2022/06/24 04:42:04;;;;;;;1.10;1.00;;;21.00;99.90;;;;;;5035006;28;21012;-64
2022/06/24 04:44:31;;;;;;;1.37;1.17;;;20.70;99.90;;;;;;5028098;28;20232;-66
2022/06/24 04:46:59;;;;;;;1.35;1.23;;;20.60;99.90;;;;;;5033807;28;20264;-64
2022/06/24 04:49:26;;;;;;;1.23;1.13;;;20.40;99.90;;;;;;5034773;28;20300;-65
2022/06/24 04:51:54;;;;;;;1.33;1.23;;;20.30;99.90;;;;;;5033162;28;20650;-65
2022/06/24 04:54:21;;;;;;;0.97;0.97;;;20.20;99.90;;;;;;5032881;28;20204;-65
2022/06/24 04:56:48;;;;;;;1.33;1.23;;;20.20;99.90;;;;;;5032273;28;20775;-64
2022/06/24 04:59:15;;;;;;;1.00;0.90;;;20.20;99.90;;;;;;5032650;28;20236;-66
2022/06/24 05:01:42;;;;;;;1.13;1.10;;;20.20;99.90;;;;;;5034332;28;20291;-65
2022/06/24 05:04:11;;;;;;;1.20;1.20;;;20.20;99.90;;;;;;5081238;22;20218;-63
2022/06/24 05:06:37;;;;;;;2.00;1.40;;;20.30;99.90;;;;;;5088520;28;20202;-63
2022/06/24 05:09:04;;;;;;;1.37;1.27;;;20.30;99.90;;;;;;5083342;28;20222;-63
2022/06/24 05:11:31;;;;;;;1.30;1.20;;;20.40;99.90;;;;;;5085970;28;20226;-62
2022/06/24 05:13:58;;;;;;;1.63;1.52;;;20.40;99.90;;;;;;5095507;28;20222;-63
2022/06/24 05:16:25;;;;;;;1.50;1.30;;;20.50;99.90;;;;;;5092222;28;20210;-62
2022/06/24 05:18:52;;;;;;;1.52;1.27;;;20.50;99.90;;;;;;5091529;28;20206;-62
2022/06/24 05:21:20;;;;;;;1.33;1.17;;;20.60;99.90;;;;;;5096102;28;20278;-63
2022/06/24 05:23:47;;;;;;;1.40;1.30;;;20.80;99.90;;;;;;5098401;28;20807;-63
2022/06/24 05:26:14;;;;;;;1.42;1.20;;;21.00;99.90;;;;;;5095757;28;20198;-63
2022/06/24 05:28:41;;;;;;;1.00;1.00;;;21.20;99.90;;;;;;5093385;28;20199;-62
2022/06/24 05:31:08;;;;;;;1.88;1.35;;;21.40;99.90;;;;;;5095644;28;20227;-63
2022/06/24 05:33:35;;;;;;;1.40;1.30;;;21.50;99.90;;;;;;5099339;28;20249;-63
2022/06/24 05:36:02;;;;;;;1.27;1.17;;;21.60;99.90;;;;;;5097529;28;20512;-62
2022/06/24 05:38:30;;;;;;;1.65;1.50;;;21.70;99.90;;;;;;5084196;28;20203;-63
2022/06/24 05:40:57;;;;;;;1.60;1.50;;;22.00;99.90;;;;;;5092817;28;20298;-63
2022/06/24 05:43:23;;;;;;;1.58;1.48;;;22.10;99.90;;;;;;5085668;28;20313;-64
2022/06/24 05:45:50;;;;;;;1.45;1.35;;;21.90;99.90;;;;;;5092194;28;20292;-62
2022/06/24 05:48:17;;;;;;;1.25;1.15;;;21.80;99.90;;;;;;5091873;28;20238;-62
2022/06/24 05:50:44;;;;;;;1.58;1.48;;;21.90;99.90;;;;;;5089853;28;20230;-63
2022/06/24 05:56:02;;;;;;;1.42;1.33;;;22.20;99.90;;;;;;5094018;28;20709;-63
2022/06/24 05:58:30;;;;;;;1.40;1.30;;;22.10;99.90;;;;;;5086117;28;20205;-64
2022/06/24 06:00:58;;;;;;;1.35;1.25;;;22.10;99.90;;;;;;5087009;28;20286;-62
2022/06/24 06:03:25;;;;;;;1.38;1.38;;;22.20;99.90;;;;;;5091988;28;20313;-63
2022/06/24 06:05:52;;;;;;;1.67;1.55;;;22.30;99.90;;;;;;5095911;28;20351;-62
2022/06/24 06:08:19;;;;;;;2.22;2.13;;;22.40;99.90;;;;;;5080706;28;20290;-62
2022/06/24 06:10:46;;;;;;;1.50;1.40;;;22.20;99.90;;;;;;5090482;28;20226;-62
2022/06/24 06:13:15;;;;;;;1.40;1.30;;;22.20;99.90;;;;;;5087256;28;20643;-63
2022/06/24 06:15:42;;;;;;;1.70;1.60;;;22.00;99.90;;;;;;5086850;28;20247;-62
2022/06/24 06:18:09;;;;;;;1.70;1.25;;;21.90;99.90;;;;;;5090991;28;20213;-62
2022/06/24 06:20:36;;;;;;;1.45;1.20;;;21.80;99.90;;;;;;5086968;28;20272;-63
2022/06/24 06:23:04;;;;;;;2.33;1.30;;;21.90;99.90;;;;;;5089960;28;20219;-63
2022/06/24 06:25:31;;;;;;;1.50;1.40;;;22.00;99.90;;;;;;5092871;28;20276;-62
2022/06/24 06:27:58;;;;;;;2.08;1.50;;;22.10;99.90;;;;;;5087677;28;20282;-63
2022/06/24 06:30:26;;;;;;;1.40;1.30;;;22.10;99.90;;;;;;5083822;28;20215;-63
2022/06/24 06:32:53;;;;;;;1.30;1.20;;;22.30;99.90;;;;;;5086203;28;20317;-63
2022/06/24 06:35:20;;;;;;;1.40;1.33;;;22.30;99.90;;;;;;5088131;28;20679;-62
2022/06/24 06:37:47;;;;;;;1.67;1.58;;;22.30;99.90;;;;;;5089909;28;20290;-62
2022/06/24 06:40:13;;;;;;;1.50;1.40;;;22.30;99.90;;;;;;5095063;28;20198;-63
2022/06/24 06:42:41;;;;;;;2.33;1.50;;;22.30;99.90;;;;;;5084865;28;20720;-63
2022/06/24 06:45:08;;;;;;;1.40;1.30;;;22.40;99.90;;;;;;5086109;28;20234;-63
2022/06/24 06:47:37;;;;;;;0.85;0.85;;;22.40;99.90;;;;;;5084863;28;20773;-63
2022/06/24 06:50:05;;;;;;;1.10;1.00;;;22.40;99.90;;;;;;5092364;28;20309;-64
2022/06/24 06:52:32;;;;;;;1.00;1.00;;;22.50;99.90;;;;;;5091788;28;20218;-63
2022/06/24 06:54:59;;;;;;;1.50;1.10;;;22.40;99.90;;;;;;5088533;28;20198;-64
2022/06/24 06:57:26;;;;;;;0.93;0.90;;;22.40;99.90;;;;;;5083034;28;20210;-64
2022/06/24 06:59:53;;;;;;;1.73;1.10;;;22.50;99.90;;;;;;5087915;28;20198;-62
2022/06/24 07:02:20;;;;;;;1.00;1.00;;;22.80;99.90;;;;;;5085940;28;20231;-63
2022/06/24 07:04:48;;;;;;;0.93;0.90;;;23.10;99.90;;;;;;5088362;28;20232;-63
2022/06/24 07:07:15;;;;;;;1.10;1.10;;;23.40;99.90;;;;;;5089844;28;20286;-64
2022/06/24 07:09:43;;;;;;;1.02;1.02;;;23.60;99.90;;;;;;5084049;28;20250;-64
2022/06/24 07:12:10;;;;;;;1.13;1.02;;;23.90;99.90;;;;;;5088900;28;20598;-64
2022/06/24 07:14:37;;;;;;;0.77;0.77;;;24.10;99.90;;;;;;5086994;28;20234;-63
2022/06/24 07:17:04;;;;;;;1.17;1.08;;;24.20;99.90;;;;;;5093516;28;20210;-63
2022/06/24 07:19:31;;;;;;;1.02;1.02;;;24.30;99.90;;;;;;5090112;28;20289;-63
2022/06/24 07:21:59;;;;;;;0.88;0.88;;;24.40;99.90;;;;;;5086949;28;20214;-63
2022/06/24 07:24:26;;;;;;;1.17;0.90;;;24.50;99.90;;;;;;5089135;28;20214;-63
2022/06/24 07:26:53;;;;;;;0.70;0.70;;;24.50;99.90;;;;;;5094612;28;20289;-63
2022/06/24 07:29:20;;;;;;;0.82;0.80;;;24.60;99.90;;;;;;5088634;28;20195;-64
2022/06/24 07:31:47;;;;;;;1.05;1.05;;;24.90;99.90;;;;;;5093255;28;20199;-64
2022/06/24 07:34:14;;;;;;;0.90;0.90;;;25.00;99.90;;;;;;5078371;28;20246;-62
2022/06/24 07:36:41;;;;;;;0.80;0.80;;;25.20;99.90;;;;;;5094061;28;20657;-63
2022/06/24 07:39:10;;;;;;;0.88;0.88;;;25.30;99.90;;;;;;5086152;28;20202;-64
2022/06/24 07:41:37;;;;;;;0.80;0.80;;;25.30;99.90;;;;;;5095403;28;20208;-63
2022/06/24 07:44:04;;;;;;;0.68;0.68;;;25.40;99.90;;;;;;5088342;28;20319;-64
2022/06/24 07:46:31;;;;;;;0.85;0.70;;;25.50;99.90;;;;;;5086379;28;20207;-64
2022/06/24 07:48:58;;;;;;;1.00;0.90;;;25.50;99.90;;;;;;5098389;28;20550;-63
2022/06/24 07:51:25;;;;;;;0.90;0.90;;;25.60;99.90;;;;;;5098483;28;20218;-62
2022/06/24 07:53:52;;;;;;;0.80;0.80;;;25.60;99.90;;;;;;5090150;28;20210;-64
2022/06/24 07:59:05;;;;;;;1.00;1.00;;;25.40;99.90;;;;;;5097025;28;20320;-63
2022/06/24 08:01:32;;;;;;;1.00;1.00;;;25.30;99.90;;;;;;5096256;28;20233;-63
2022/06/24 08:03:59;;;;;;;0.80;0.80;;;25.30;99.90;;;;;;5091887;28;20238;-62
2022/06/24 08:06:26;;;;;;;0.90;0.90;;;25.30;99.90;;;;;;5094500;28;20661;-62
2022/06/24 08:08:53;;;;;;;1.13;1.02;;;25.50;99.90;;;;;;5097209;28;20207;-62
2022/06/24 08:11:21;;;;;;;0.88;0.88;;;25.50;99.90;;;;;;5098672;28;20286;-62
2022/06/24 08:13:48;;;;;;;0.70;0.70;;;25.60;99.90;;;;;;5087910;28;20310;-62
2022/06/24 08:16:15;;;;;;;0.70;0.70;;;25.70;99.90;;;;;;5082271;28;20625;-63
2022/06/24 08:18:42;;;;;;;0.85;0.85;;;25.70;99.90;;;;;;5087049;28;20237;-63
2022/06/24 08:21:09;;;;;;;0.80;0.77;;;25.60;99.90;;;;;;5083004;28;20199;-63
2022/06/24 08:23:36;;;;;;;0.88;0.88;;;25.60;99.90;;;;;;5088148;28;20265;-62
2022/06/24 08:26:02;;;;;;;0.88;0.88;;;25.60;99.90;;;;;;5080914;28;20214;-63
2022/06/24 08:28:30;;;;;;;0.88;0.88;;;25.60;99.90;;;;;;5082130;28;20196;-63
2022/06/24 08:30:57;;;;;;;0.70;0.70;;;25.60;99.90;;;;;;5090001;28;20309;-64
2022/06/24 08:33:24;;;;;;;0.90;0.90;;;25.50;99.90;;;;;;5085671;28;20222;-63
2022/06/24 08:35:51;;;;;;;1.13;1.00;;;25.20;99.90;;;;;;5088336;28;20210;-63
2022/06/24 08:38:19;;;;;;;0.75;0.75;;;25.50;99.90;;;;;;5081756;28;20214;-63
2022/06/24 08:40:48;;;;;;;1.02;0.88;;;25.70;99.90;;;;;;5093651;28;20199;-63
2022/06/24 08:43:15;;;;;;;0.73;0.73;;;25.90;99.90;;;;;;5089866;28;20222;-63
2022/06/24 08:45:43;;;;;;;0.60;0.60;;;26.10;99.90;;;;;;5087080;28;20242;-63
2022/06/24 08:48:11;;;;;;;0.90;0.90;;;26.10;99.90;;;;;;5078384;28;20637;-63
2022/06/24 08:50:38;;;;;;;1.30;0.90;;;26.00;99.90;;;;;;5082047;28;20233;-64
2022/06/24 08:53:08;;;;;;;0.60;0.60;;;26.10;99.90;;;;;;5090947;28;20218;-63
2022/06/24 08:55:36;;;;;;;0.70;0.70;;;26.20;99.90;;;;;;5092734;28;20205;-64
2022/06/24 08:58:07;;;;;;;0.82;0.80;;;26.10;99.90;;;;;;5090124;28;20280;-64
2022/06/24 09:00:34;;;;;;;0.80;0.80;;;26.20;99.90;;;;;;5081862;28;20565;-64
2022/06/24 09:03:03;;;;;;;0.80;0.80;;;26.30;99.90;;;;;;5084973;28;20304;-63
2022/06/24 09:05:30;;;;;;;0.73;0.73;;;26.50;99.90;;;;;;5084895;28;20195;-63
2022/06/24 09:08:03;;;;;;;0.70;0.70;;;26.60;99.90;;;;;;5084274;28;20551;-63
2022/06/24 09:10:31;;;;;;;0.70;0.70;;;26.70;99.90;;;;;;5080331;28;20672;-63
2022/06/24 09:12:57;;;;;;;0.85;0.70;;;26.70;99.90;;;;;;5084785;28;20313;-63
2022/06/24 09:15:25;;;;;;;0.80;0.80;;;26.80;99.90;;;;;;5084786;28;20647;-63
2022/06/24 09:17:52;;;;;;;0.70;0.70;;;26.80;99.90;;;;;;5092354;28;20241;-64
2022/06/24 09:20:21;;;;;;;0.65;0.65;;;26.80;99.90;;;;;;5088963;28;20201;-64
2022/06/24 09:22:48;;;;;;;0.70;0.70;;;26.70;99.90;;;;;;5081817;28;20314;-62
2022/06/24 09:25:15;;;;;;;0.75;0.75;;;26.70;99.90;;;;;;5085801;28;20286;-63
2022/06/24 09:27:44;;;;;;;0.95;0.85;;;26.60;99.90;;;;;;5079900;28;20214;-62
2022/06/24 09:30:12;;;;;;;0.90;0.90;;;26.40;99.90;;;;;;5092382;28;20548;-63
2022/06/24 09:32:50;;;;;;;0.60;0.60;;;26.20;99.90;;;;;;5093062;28;20314;-64
2022/06/24 09:35:16;;;;;;;0.88;0.80;;;26.50;99.90;;;;;;5092437;28;20760;-64
2022/06/24 09:37:46;;;;;;;0.77;0.77;;;26.80;99.90;;;;;;5089777;28;20241;-64
2022/06/24 09:40:18;;;;;;;0.70;0.70;;;26.70;99.90;;;;;;5090112;28;20198;-64
2022/06/24 09:42:53;;;;;;;0.88;0.88;;;26.20;99.90;;;;;;5080775;28;20227;-64
2022/06/24 09:45:20;;;;;;;0.68;0.68;;;26.50;99.90;;;;;;5092358;28;20202;-63
2022/06/24 09:47:48;;;;;;;0.70;0.70;;;26.80;99.90;;;;;;5087817;28;20208;-64
2022/06/24 09:50:15;;;;;;;0.60;0.60;;;26.80;99.90;;;;;;5087655;28;20214;-63
2022/06/24 09:52:43;;;;;;;0.70;0.70;;;26.90;99.90;;;;;;5087285;28;20779;-64
2022/06/24 09:55:11;;;;;;;0.70;0.70;;;27.10;99.90;;;;;;5083989;28;20641;-64
2022/06/24 09:57:38;;;;;;;0.68;0.68;;;26.90;99.90;;;;;;5086423;28;20772;-64
2022/06/24 10:02:51;;;;;;;0.60;0.60;;;26.30;99.90;;;;;;5079976;28;20356;-63
2022/06/24 10:05:19;;;;;;;0.90;0.90;;;26.30;99.90;;;;;;5082717;28;20298;-62
2022/06/24 10:07:48;;;;;;;0.50;0.50;;;26.60;99.90;;;;;;5077266;28;20633;-62
2022/06/24 10:10:18;;;;;;;0.80;0.80;;;27.00;99.90;;;;;;5082122;28;20638;-63
2022/06/24 10:12:50;;;;;;;0.60;0.60;;;27.30;99.90;;;;;;5079878;28;20245;-63
2022/06/24 10:15:18;;;;;;;0.50;0.50;;;27.30;99.90;;;;;;5089007;28;20660;-62
2022/06/24 10:17:48;;;;;;;0.60;0.60;;;27.30;99.90;;;;;;5078356;28;20571;-65
2022/06/24 10:20:16;;;;;;;0.73;0.73;;;27.40;99.90;;;;;;5080001;28;20289;-64
2022/06/24 10:22:45;;;;;;;1.02;0.80;;;27.40;99.90;;;;;;5080077;28;20223;-64
2022/06/24 10:25:18;;;;;;;0.90;0.90;;;27.40;99.90;;;;;;5084396;28;20278;-64
2022/06/24 10:28:07;;;;;;;0.70;0.70;;;27.20;99.90;;;;;;5086103;28;20209;-63
2022/06/24 10:30:56;;;;;;;1.65;0.70;;;26.80;99.90;;;;;;5085337;28;20230;-63
2022/06/24 10:33:26;;;;;;;0.80;0.80;;;26.70;99.90;;;;;;5089963;28;20692;-63
2022/06/24 10:35:58;;;;;;;0.77;0.77;;;26.80;99.90;;;;;;5091978;28;20212;-64
2022/06/24 10:38:27;;;;;;;1.55;0.80;;;26.80;99.90;;;;;;5100605;28;20281;-64
2022/06/24 10:40:58;;;;;;;0.80;0.80;;;26.70;99.90;;;;;;5087502;28;20204;-64
2022/06/24 10:43:35;;;;;;;0.60;0.60;;;26.70;99.90;;;;;;5091242;28;20304;-63
2022/06/24 10:46:21;;;;;;;0.80;0.80;;;26.70;99.90;;;;;;5089640;28;20657;-62
2022/06/24 10:49:01;;;;;;;0.63;0.63;;;26.80;99.90;;;;;;5098369;28;20202;-62
2022/06/24 10:51:31;;;;;;;0.70;0.70;;;26.90;99.90;;;;;;5083570;28;20214;-64
2022/06/24 10:54:17;;;;;;;0.80;0.80;;;26.90;99.90;;;;;;5084076;28;20268;-64
2022/06/24 10:56:50;;;;;;;0.50;0.50;;;27.00;99.90;;;;;;5092143;28;20298;-63
2022/06/24 10:59:19;;;;;;;0.65;0.65;;;27.00;99.90;;;;;;5084941;28;20203;-64
2022/06/24 11:01:48;;;;;;;0.43;0.43;;;27.00;99.90;;;;;;5092853;28;20285;-63
2022/06/24 11:04:17;;;;;;;0.70;0.70;;;26.90;99.90;;;;;;5090657;28;20313;-62
2022/06/24 11:07:10;;;;;;;0.70;0.70;;;26.90;99.90;;;;;;5091832;28;20289;-63
2022/06/24 11:09:37;;;;;;;0.60;0.60;;;26.90;99.90;;;;;;5093854;28;20649;-64
2022/06/24 11:12:26;;;;;;;0.80;0.80;;;26.90;99.90;;;;;;5095964;28;20229;-62
2022/06/24 11:14:53;;;;;;;0.70;0.70;;;26.90;99.90;;;;;;5098171;28;20241;-62
2022/06/24 11:17:23;;;;;;;0.70;0.70;;;26.70;99.90;;;;;;5097340;28;20211;-63
2022/06/24 11:19:50;;;;;;;0.70;0.70;;;26.70;99.90;;;;;;5095363;28;20208;-63
2022/06/24 11:22:17;;;;;;;0.70;0.70;;;26.70;99.90;;;;;;5095616;28;20198;-63
2022/06/24 11:24:48;;;;;;;0.70;0.70;;;26.70;99.90;;;;;;5086516;28;20207;-62
2022/06/24 11:27:16;;;;;;;0.80;0.80;;;26.90;99.90;;;;;;5096072;28;20202;-62
2022/06/24 11:29:53;;;;;;;0.88;0.88;;;26.90;99.90;;;;;;5089523;22;20255;-66
2022/06/24 11:32:21;;;;;;;0.70;0.70;;;26.80;99.90;;;;;;5071212;28;20246;-65
2022/06/24 11:34:49;;;;;;;1.00;0.73;;;26.70;99.90;;;;;;5065563;28;20235;-64
2022/06/24 11:37:22;;;;;;;0.63;0.63;;;26.70;99.90;;;;;;5065820;28;20204;-65
2022/06/24 11:39:52;;;;;;;0.70;0.70;;;26.70;99.90;;;;;;5071809;28;20585;-64
2022/06/24 11:42:20;;;;;;;0.65;0.65;;;26.50;99.90;;;;;;5066306;28;20203;-64
2022/06/24 11:44:51;;;;;;;1.08;0.82;;;26.50;99.90;;;;;;5065000;28;20203;-65
2022/06/24 11:47:29;;;;;;;0.63;0.63;;;26.50;99.90;;;;;;5066718;28;20200;-64
2022/06/24 11:49:56;;;;;;;0.60;0.60;;;26.40;99.90;;;;;;5059404;28;20283;-65
2022/06/24 11:52:23;;;;;;;0.73;0.70;;;26.10;99.90;;;;;;5072285;28;20228;-64
2022/06/24 11:54:50;;;;;;;0.70;0.70;;;26.10;99.90;;;;;;5069366;28;20223;-65
2022/06/24 11:57:16;;;;;;;0.73;0.73;;;26.10;99.90;;;;;;5068245;28;20200;-65
2022/06/24 11:59:46;;;;;;;0.63;0.63;;;26.10;99.90;;;;;;5067370;28;20310;-65
2022/06/24 12:02:15;;;;;;;0.60;0.60;;;26.10;99.90;;;;;;5067132;28;20642;-65
2022/06/24 12:04:43;;;;;;;0.98;0.85;;;26.10;99.90;;;;;;5067904;28;20211;-66
2022/06/24 12:07:11;;;;;;;0.70;0.70;;;26.20;99.90;;;;;;5062920;28;20303;-65
2022/06/24 12:09:39;;;;;;;0.70;0.70;;;26.30;99.90;;;;;;5061999;28;20310;-65
2022/06/24 12:12:10;;;;;;;0.70;0.70;;;26.40;99.90;;;;;;5062474;28;20219;-64
2022/06/24 12:14:37;;;;;;;0.80;0.80;;;26.40;99.90;;;;;;5065850;28;20252;-65
2022/06/24 12:17:07;;;;;;;0.63;0.63;;;26.40;99.90;;;;;;5062239;28;20269;-64
2022/06/24 12:19:37;;;;;;;1.48;0.60;;;26.40;99.90;;;;;;5069343;28;20650;-64
2022/06/24 12:22:06;;;;;;;1.00;0.73;;;26.50;99.90;;;;;;5064914;28;20254;-64
2022/06/24 12:24:33;;;;;;;0.63;0.63;;;26.60;99.90;;;;;;5070177;28;20295;-65
2022/06/24 12:27:03;;;;;;;0.73;0.73;;;26.80;99.90;;;;;;5070059;28;20296;-66
2022/06/24 12:29:32;;;;;;;0.60;0.60;;;26.80;99.90;;;;;;5065499;28;20309;-66
2022/06/24 12:31:59;;;;;;;0.70;0.70;;;26.80;99.90;;;;;;5064301;28;20329;-66
2022/06/24 12:34:29;;;;;;;0.70;0.70;;;26.80;99.90;;;;;;5065403;28;20286;-66
2022/06/24 12:36:58;;;;;;;0.82;0.80;;;26.70;99.90;;;;;;5070031;28;20257;-67
2022/06/24 12:39:30;;;;;;;0.70;0.70;;;26.50;99.90;;;;;;5045065;28;20225;-65
2022/06/24 12:41:57;;;;;;;0.82;0.82;;;26.30;99.90;;;;;;5064967;28;20302;-65
2022/06/24 12:44:28;;;;;;;0.75;0.75;;;26.00;99.90;;;;;;5062747;28;20261;-64
2022/06/24 12:52:33;;;;;;;1.95;0.77;;;25.50;99.90;;;;;;5056835;28;20230;-64
2022/06/24 12:55:00;;;;;;;0.80;0.80;;;25.30;99.90;;;;;;5068629;28;20210;-72
2022/06/24 12:57:27;;;;;;;0.70;0.70;;;25.20;99.90;;;;;;5068482;28;20291;-64
2022/06/24 12:59:54;;;;;;;0.95;0.90;;;25.10;99.90;;;;;;5064963;28;20234;-65
2022/06/24 13:02:21;;;;;;;0.88;0.88;;;25.00;99.90;;;;;;5068675;28;20300;-65
2022/06/24 13:04:49;;;;;;;0.90;0.90;;;25.10;99.90;;;;;;5064465;28;20232;-65
2022/06/24 13:07:16;;;;;;;0.85;0.85;;;24.80;99.90;;;;;;5070915;28;20287;-65
2022/06/24 13:09:43;;;;;;;0.70;0.70;;;24.70;99.90;;;;;;5066549;28;20223;-66
2022/06/24 13:12:11;;;;;;;1.05;0.95;;;24.60;99.90;;;;;;5062194;28;20318;-65